< < Back
Terminal Aerodrome Forecast


Current Version              Previous Versions:   1  2  3  4  5  6  7  8  9  

Terminal Aerodrome Forecast

760
FTUS42 KFFC 230300 AAB
TAFATL
TAF AMD
KATL 230332Z 2304/2406 33006KT P6SM SKC
     FM231600 32005KT P6SM FEW250=



Latest METAR

695
SAUS70 KWBC 230400 RRB
MTRATL
METAR KATL 230352Z 34007KT 10SM CLR 11/06 A3011 RMK AO2 SLP196
T01110056


USA.gov is the U.S. government's official web portal to all federal, state and local government web resources and services.